Time;durP1;ratioP1;P1;durP2;ratioP2;P2;SDS_P1;SDS_P2;PMS_P1;PMS_P2;Temp;Humidity;BMP_temperature;BMP_pressure;BME280_temperature;BME280_humidity;BME280_pressure;Samples;Min_cycle;Max_cycle;Signal;HPM_P1;HPM_P2
2021/11/03 00:00:59;;;;;;;;;;;;;;;21.94;51.95;100164.41;2092117;28;874;-56
2021/11/03 00:02:02;;;;;;;;;;;;;;;21.99;52.00;100162.34;2092221;28;816;-55
2021/11/03 00:03:03;;;;;;;;;;;;;;;21.92;52.81;100160.91;2092142;28;811;-56
2021/11/03 00:04:03;;;;;;;;;;;;;;;21.91;52.97;100159.16;2092172;28;993;-56
2021/11/03 00:05:04;;;;;;;;;;;;;;;21.90;51.25;100163.69;2092018;28;1148;-55
2021/11/03 00:06:04;;;;;;;;;;;;;;;21.88;53.61;100159.31;2092124;28;978;-56
2021/11/03 00:07:04;;;;;;;;;;;;;;;21.90;51.90;100160.09;2092104;28;932;-56
2021/11/03 00:08:04;;;;;;;;;;;;;;;21.92;53.03;100161.78;2092043;28;950;-56
2021/11/03 00:09:05;;;;;;;;;;;;;;;21.90;51.71;100161.00;2092113;28;958;-55
2021/11/03 00:10:06;;;;;;;;;;;;;;;21.93;52.09;100154.56;2091991;28;1975;-56
2021/11/03 00:11:06;;;;;;;;;;;;;;;21.90;53.29;100160.09;2092117;28;835;-56
2021/11/03 00:12:08;;;;;;;;;;;;;;;21.92;52.59;100156.41;2091984;28;1013;-56
2021/11/03 00:13:09;;;;;;;;;;;;;;;21.93;51.74;100165.34;2092019;28;1104;-56
2021/11/03 00:14:09;;;;;;;;;;;;;;;21.85;53.79;100160.34;2092043;28;772;-55
2021/11/03 00:15:10;;;;;;;;;;;;;;;21.86;51.78;100159.41;2091959;28;795;-55
2021/11/03 00:16:11;;;;;;;;;;;;;;;21.90;51.94;100160.09;2092018;28;1052;-56
2021/11/03 00:17:11;;;;;;;;;;;;;;;21.89;52.68;100161.06;2091874;28;779;-56
2021/11/03 00:18:11;;;;;;;;;;;;;;;21.88;51.98;100162.00;2091996;28;867;-56
2021/11/03 00:19:11;;;;;;;;;;;;;;;21.81;52.16;100158.75;2092012;28;1040;-56
2021/11/03 00:20:12;;;;;;;;;;;;;;;21.80;53.58;100164.19;2092041;28;811;-55
2021/11/03 00:21:12;;;;;;;;;;;;;;;21.80;52.06;100164.19;2091928;28;945;-55
2021/11/03 00:22:14;;;;;;;;;;;;;;;21.81;53.07;100157.84;2091818;28;862;-56
2021/11/03 00:23:14;;;;;;;;;;;;;;;21.82;50.80;100157.81;2091947;28;804;-55
2021/11/03 00:24:15;;;;;;;;;;;;;;;21.86;53.03;100153.13;2091926;28;938;-56
2021/11/03 00:25:15;;;;;;;;;;;;;;;21.84;52.04;100157.72;2091803;28;803;-56
2021/11/03 00:26:15;;;;;;;;;;;;;;;21.76;51.98;100150.00;2091954;28;879;-56
2021/11/03 00:27:15;;;;;;;;;;;;;;;21.83;51.72;100162.25;2091958;28;1020;-56
2021/11/03 00:28:17;;;;;;;;;;;;;;;21.81;52.19;100161.44;2091661;28;1029;-56
2021/11/03 00:29:17;;;;;;;;;;;;;;;21.75;52.84;100156.34;2091968;28;776;-56
2021/11/03 00:30:17;;;;;;;;;;;;;;;21.79;52.31;100149.88;2091751;28;1885;-56
2021/11/03 00:31:18;;;;;;;;;;;;;;;21.86;51.84;100154.00;2091933;28;787;-56
2021/11/03 00:32:18;;;;;;;;;;;;;;;21.88;52.79;100157.50;2091867;28;847;-55
2021/11/03 00:33:19;;;;;;;;;;;;;;;21.85;52.27;100154.97;2091844;28;969;-56
2021/11/03 00:34:19;;;;;;;;;;;;;;;21.81;53.30;100164.16;2091808;28;1759;-56
2021/11/03 00:35:19;;;;;;;;;;;;;;;21.85;52.16;100152.25;2091867;28;1016;-56
2021/11/03 00:36:19;;;;;;;;;;;;;;;21.85;52.42;100154.06;2091862;28;1013;-55
2021/11/03 00:37:19;;;;;;;;;;;;;;;21.77;52.53;100162.53;2091869;28;827;-55
2021/11/03 00:38:20;;;;;;;;;;;;;;;21.77;52.22;100165.25;2091721;28;1565;-56
2021/11/03 00:39:22;;;;;;;;;;;;;;;21.84;52.15;100153.22;2091907;28;732;-56
2021/11/03 00:40:22;;;;;;;;;;;;;;;21.79;52.38;100155.25;2091597;28;799;-56
2021/11/03 00:41:23;;;;;;;;;;;;;;;21.77;52.67;100159.84;2091763;28;870;-56
2021/11/03 00:42:23;;;;;;;;;;;;;;;21.78;51.80;100150.81;2091838;28;985;-56
2021/11/03 00:43:23;;;;;;;;;;;;;;;21.81;54.57;100163.25;2091747;28;863;-56
2021/11/03 00:44:24;;;;;;;;;;;;;;;21.79;53.40;100148.97;2091821;28;937;-56
2021/11/03 00:45:24;;;;;;;;;;;;;;;21.80;52.85;100150.72;2091845;28;1068;-56
2021/11/03 00:46:25;;;;;;;;;;;;;;;21.77;52.48;100147.25;2091574;28;1118;-56
2021/11/03 00:47:25;;;;;;;;;;;;;;;21.72;51.68;100149.31;2091650;28;993;-55
2021/11/03 00:48:25;;;;;;;;;;;;;;;21.77;51.79;100152.66;2091702;28;886;-56
2021/11/03 00:49:25;;;;;;;;;;;;;;;21.75;52.24;100157.25;2091801;28;1029;-56
2021/11/03 00:50:25;;;;;;;;;;;;;;;21.73;52.17;100160.94;2091735;28;1898;-56
2021/11/03 00:51:26;;;;;;;;;;;;;;;21.73;51.94;100156.44;2091706;28;1027;-56
2021/11/03 00:52:26;;;;;;;;;;;;;;;21.76;52.46;100150.91;2091723;28;850;-56
2021/11/03 00:53:26;;;;;;;;;;;;;;;21.71;52.22;100154.75;2091828;28;874;-55
2021/11/03 00:54:27;;;;;;;;;;;;;;;21.77;51.21;100152.66;2091707;28;989;-56
2021/11/03 00:55:27;;;;;;;;;;;;;;;21.82;51.25;100152.41;2091814;28;791;-56
2021/11/03 00:56:27;;;;;;;;;;;;;;;21.79;51.59;100149.88;2091547;28;1141;-56
2021/11/03 00:57:27;;;;;;;;;;;;;;;21.73;52.90;100156.44;2091774;28;752;-56
2021/11/03 00:58:28;;;;;;;;;;;;;;;21.72;52.33;100148.41;2091630;28;993;-56
2021/11/03 00:59:28;;;;;;;;;;;;;;;21.68;51.85;100154.91;2091717;28;842;-56
2021/11/03 01:00:28;;;;;;;;;;;;;;;21.74;52.51;100149.22;2091678;28;820;-56
2021/11/03 01:01:29;;;;;;;;;;;;;;;21.80;51.76;100145.31;2091674;28;989;-56
2021/11/03 01:02:29;;;;;;;;;;;;;;;21.69;52.59;100152.16;2091646;28;1064;-55
2021/11/03 01:03:30;;;;;;;;;;;;;;;21.69;52.42;100146.75;2091599;28;808;-56
2021/11/03 01:04:30;;;;;;;;;;;;;;;21.68;51.46;100145.00;2091549;28;1117;-56
2021/11/03 01:05:31;;;;;;;;;;;;;;;21.71;52.34;100144.84;2091622;28;795;-56
2021/11/03 01:06:31;;;;;;;;;;;;;;;21.73;51.77;100140.28;2091552;28;1311;-56
2021/11/03 01:07:31;;;;;;;;;;;;;;;21.70;51.52;100137.72;2091700;28;810;-56
2021/11/03 01:08:32;;;;;;;;;;;;;;;21.66;53.16;100144.22;2091433;28;977;-56
2021/11/03 01:09:32;;;;;;;;;;;;;;;21.64;51.84;100142.53;2091549;28;1000;-56
2021/11/03 01:10:32;;;;;;;;;;;;;;;21.62;53.28;100137.22;2091394;28;1902;-56
2021/11/03 01:11:33;;;;;;;;;;;;;;;21.69;53.17;100135.09;2091557;28;1029;-56
2021/11/03 01:12:33;;;;;;;;;;;;;;;21.69;52.74;100135.09;2091615;28;783;-56
2021/11/03 01:13:34;;;;;;;;;;;;;;;21.71;52.17;100135.88;2091482;28;978;-56
2021/11/03 01:14:35;;;;;;;;;;;;;;;21.67;52.41;100136.97;2091557;28;1167;-56
2021/11/03 01:15:36;;;;;;;;;;;;;;;21.64;52.45;100146.09;2091611;28;1094;-56
2021/11/03 01:16:36;;;;;;;;;;;;;;;21.72;52.46;100133.13;2091393;28;854;-56
2021/11/03 01:17:36;;;;;;;;;;;;;;;21.70;51.21;100129.63;2091579;28;887;-56
2021/11/03 01:18:37;;;;;;;;;;;;;;;21.70;51.73;100134.13;2091596;28;993;-56
2021/11/03 01:19:37;;;;;;;;;;;;;;;21.70;52.08;100132.34;2091528;28;1202;-56
2021/11/03 01:20:37;;;;;;;;;;;;;;;21.70;52.64;100134.13;2091512;28;981;-56
2021/11/03 01:21:38;;;;;;;;;;;;;;;21.72;52.71;100133.13;2091342;28;997;-56
2021/11/03 01:22:38;;;;;;;;;;;;;;;21.72;52.49;100127.75;2091312;28;1481;-61
2021/11/03 01:23:39;;;;;;;;;;;;;;;21.75;52.01;100127.59;2091537;28;977;-55
2021/11/03 01:24:39;;;;;;;;;;;;;;;21.69;52.06;100132.38;2091623;28;828;-56
2021/11/03 01:25:39;;;;;;;;;;;;;;;21.66;53.19;100128.03;2091518;28;1423;-56
2021/11/03 01:26:39;;;;;;;;;;;;;;;21.66;52.29;100130.72;2091528;28;1343;-56
2021/11/03 01:27:39;;;;;;;;;;;;;;;21.65;52.36;100125.41;2091283;28;769;-56
2021/11/03 01:28:39;;;;;;;;;;;;;;;21.68;52.43;100127.94;2091516;28;1032;-56
2021/11/03 01:29:40;;;;;;;;;;;;;;;21.67;52.33;100128.91;2091510;28;989;-56
2021/11/03 01:30:40;;;;;;;;;;;;;;;21.65;51.70;100126.28;2091342;28;1969;-56
2021/11/03 01:31:40;;;;;;;;;;;;;;;21.65;51.99;100123.59;2091509;28;1235;-56
2021/11/03 01:32:40;;;;;;;;;;;;;;;21.65;51.18;100131.69;2091143;28;989;-56
2021/11/03 01:33:42;;;;;;;;;;;;;;;21.70;51.79;100124.25;2091355;28;811;-56
2021/11/03 01:34:42;;;;;;;;;;;;;;;21.63;52.97;100128.19;2091426;28;874;-56
2021/11/03 01:35:42;;;;;;;;;;;;;;;21.60;52.11;100129.16;2091356;28;862;-56
2021/11/03 01:36:43;;;;;;;;;;;;;;;21.65;52.40;100120.00;2091485;28;1139;-56
2021/11/03 01:37:43;;;;;;;;;;;;;;;21.67;52.57;100128.91;2091417;28;1486;-56
2021/11/03 01:38:44;;;;;;;;;;;;;;;21.66;51.94;100128.03;2091268;28;839;-55
2021/11/03 01:39:44;;;;;;;;;;;;;;;21.70;52.61;100121.56;2091475;28;812;-56
2021/11/03 01:40:45;;;;;;;;;;;;;;;21.72;51.49;100126.84;2091360;28;931;-56
2021/11/03 01:41:45;;;;;;;;;;;;;;;21.63;51.77;100122.81;2091433;28;799;-56
2021/11/03 01:42:45;;;;;;;;;;;;;;;21.61;52.66;100119.28;2091412;28;977;-56
2021/11/03 01:43:47;;;;;;;;;;;;;;;21.58;52.96;100119.41;2091445;28;772;-56
2021/11/03 01:44:47;;;;;;;;;;;;;;;21.58;52.05;100119.41;2091388;28;1080;-55
2021/11/03 01:45:48;;;;;;;;;;;;;;;21.60;53.01;100118.38;2091461;28;985;-56
2021/11/03 01:46:56;;;;;;;;;;;;;;;21.63;52.66;100122.81;2091446;28;859;-56
2021/11/03 01:48:00;;;;;;;;;;;;;;;21.59;53.16;100119.31;2091274;28;787;-56
2021/11/03 01:49:03;;;;;;;;;;;;;;;21.62;52.13;100121.06;2091410;28;1005;-56
2021/11/03 01:50:05;;;;;;;;;;;;;;;21.63;51.47;100128.19;2091334;28;1767;-56
2021/11/03 01:51:05;;;;;;;;;;;;;;;21.67;52.21;100120.81;2091303;28;1122;-55
2021/11/03 01:52:11;;;;;;;;;;;;;;;21.58;52.58;100119.41;2091422;28;922;-56
2021/11/03 01:53:14;;;;;;;;;;;;;;;21.58;52.56;100119.41;2091407;28;993;-56
2021/11/03 01:54:17;;;;;;;;;;;;;;;21.54;52.78;100123.22;2091408;28;1001;-56
2021/11/03 01:55:17;;;;;;;;;;;;;;;21.60;52.58;100117.53;2091399;28;1234;-56
2021/11/03 01:56:18;;;;;;;;;;;;;;;21.60;52.70;100118.38;2091378;28;1052;-56
2021/11/03 01:57:20;;;;;;;;;;;;;;;21.62;51.52;100113.81;2091314;28;1129;-56
2021/11/03 01:58:23;;;;;;;;;;;;;;;21.66;53.50;100114.56;2091242;28;1405;-56
2021/11/03 01:59:35;;;;;;;;;;;;;;;21.63;53.07;100114.72;2092910;28;1001;-56
2021/11/03 02:00:37;;;;;;;;;;;;;;;21.54;51.74;100112.44;2093053;28;795;-56
2021/11/03 02:01:37;;;;;;;;;;;;;;;21.53;53.21;100111.53;2093115;28;1248;-57
2021/11/03 02:02:37;;;;;;;;;;;;;;;21.50;51.72;100106.31;2093049;28;799;-56
2021/11/03 02:03:39;;;;;;;;;;;;;;;21.56;52.50;100114.09;2092927;28;974;-56
2021/11/03 02:04:40;;;;;;;;;;;;;;;21.56;52.15;100111.41;2093039;28;796;-57
2021/11/03 02:05:42;;;;;;;;;;;;;;;21.61;52.24;100111.19;2093021;28;1148;-56
2021/11/03 02:06:43;;;;;;;;;;;;;;;21.61;52.19;100105.78;2093031;28;1056;-56
2021/11/03 02:07:44;;;;;;;;;;;;;;;21.57;51.78;100106.91;2093067;28;843;-56
2021/11/03 02:08:45;;;;;;;;;;;;;;;21.57;53.10;100113.13;2092788;28;918;-56
2021/11/03 02:09:45;;;;;;;;;;;;;;;21.58;52.85;100104.09;2093004;28;933;-56
2021/11/03 02:10:45;;;;;;;;;;;;;;;21.56;53.08;100110.53;2092909;28;1906;-56
2021/11/03 02:11:46;;;;;;;;;;;;;;;21.51;52.75;100102.66;2092951;28;855;-56
2021/11/03 02:12:46;;;;;;;;;;;;;;;21.58;52.11;100100.56;2092987;28;978;-56
2021/11/03 02:13:47;;;;;;;;;;;;;;;21.62;51.74;100102.19;2092922;28;827;-56
2021/11/03 02:14:47;;;;;;;;;;;;;;;21.58;52.64;100105.94;2092954;28;811;-56
2021/11/03 02:15:48;;;;;;;;;;;;;;;21.55;51.68;100106.09;2092947;28;1124;-56
2021/11/03 02:16:49;;;;;;;;;;;;;;;21.57;51.93;100106.91;2092858;28;985;-56
2021/11/03 02:17:49;;;;;;;;;;;;;;;21.55;52.05;100104.25;2092963;28;1325;-56
2021/11/03 02:18:49;;;;;;;;;;;;;;;21.61;52.47;100098.56;2092950;28;852;-56
2021/11/03 02:19:51;;;;;;;;;;;;;;;21.61;52.22;100095.00;2092980;28;783;-56
2021/11/03 02:20:53;;;;;;;;;;;;;;;21.58;52.47;100098.72;2092903;28;989;-56
2021/11/03 02:22:08;;;;;;;;;;;;;;;21.57;52.71;100093.41;2092821;28;819;-56
2021/11/03 02:23:30;;;;;;;;;;;;;;;21.52;51.40;100085.53;2092899;28;990;-56
2021/11/03 02:24:45;;;;;;;;;;;;;;;21.55;52.05;100089.94;2092908;28;768;-56
2021/11/03 02:25:56;;;;;;;;;;;;;;;21.57;51.24;100088.88;2092977;28;843;-56
2021/11/03 02:26:57;;;;;;;;;;;;;;;21.52;51.73;100079.28;2092911;28;819;-56
2021/11/03 02:27:58;;;;;;;;;;;;;;;21.53;52.26;100072.97;2092897;28;825;-56
2021/11/03 02:28:58;;;;;;;;;;;;;;;21.52;53.56;100079.28;2092884;28;863;-56
2021/11/03 02:29:59;;;;;;;;;;;;;;;21.52;52.15;100076.59;2092909;28;795;-56
2021/11/03 02:30:59;;;;;;;;;;;;;;;21.47;52.96;100072.31;2092660;28;1886;-56
2021/11/03 02:32:11;;;;;;;;;;;;;;;21.45;52.68;100070.66;2092919;28;974;-56
2021/11/03 02:33:20;;;;;;;;;;;;;;;21.52;52.12;100072.06;2092642;28;1792;-56
2021/11/03 02:34:25;;;;;;;;;;;;;;;21.56;53.31;100072.81;2092870;28;855;-56
2021/11/03 02:35:25;;;;;;;;;;;;;;;21.60;52.61;100075.25;2092780;28;863;-56
2021/11/03 02:36:25;;;;;;;;;;;;;;;21.48;51.53;100063.28;2092715;28;1041;-56
2021/11/03 02:37:28;;;;;;;;;;;;;;;21.46;52.41;100067.88;2092733;28;1225;-56
2021/11/03 02:38:33;;;;;;;;;;;;;;;21.54;53.14;100064.78;2092704;28;1403;-56
2021/11/03 02:39:41;;;;;;;;;;;;;;;21.59;51.80;100072.66;2092652;28;1005;-56
2021/11/03 02:40:44;;;;;;;;;;;;;;;21.60;52.49;100069.00;2092727;28;858;-56
2021/11/03 02:41:44;;;;;;;;;;;;;;;21.54;53.11;100067.47;2092788;28;862;-56
2021/11/03 02:42:46;;;;;;;;;;;;;;;21.51;52.56;100066.78;2092759;28;770;-56
2021/11/03 02:44:03;;;;;;;;;;;;;;;21.42;53.54;100060.03;2092751;28;807;-56
2021/11/03 02:45:06;;;;;;;;;;;;;;;21.44;53.27;100068.91;2092794;28;870;-56
2021/11/03 02:46:07;;;;;;;;;;;;;;;21.33;53.60;100067.59;2092751;28;989;-56
2021/11/03 02:47:07;;;;;;;;;;;;;;;21.40;52.87;100061.94;2092716;28;977;-56
2021/11/03 02:48:07;;;;;;;;;;;;;;;21.46;53.40;100067.88;2092484;28;850;-56
2021/11/03 02:49:07;;;;;;;;;;;;;;;21.51;53.04;100064.06;2092709;28;850;-56
2021/11/03 02:50:09;;;;;;;;;;;;;;;21.49;52.42;100061.44;2092573;28;1893;-56
2021/11/03 02:51:12;;;;;;;;;;;;;;;21.44;53.17;100064.38;2092658;28;818;-56
2021/11/03 02:52:18;;;;;;;;;;;;;;;21.53;52.16;100062.19;2092715;28;854;-57
2021/11/03 02:53:18;;;;;;;;;;;;;;;21.52;52.69;100065.81;2092372;28;997;-56
2021/11/03 02:54:21;;;;;;;;;;;;;;;21.56;52.59;100065.59;2092654;28;857;-56
2021/11/03 02:55:21;;;;;;;;;;;;;;;21.44;55.22;100063.53;2092730;28;843;-56
2021/11/03 02:56:24;;;;;;;;;;;;;;;21.45;52.12;100066.13;2092366;28;822;-57
2021/11/03 02:57:25;;;;;;;;;;;;;;;21.52;53.00;100061.28;2092594;28;946;-56
2021/11/03 02:58:26;;;;;;;;;;;;;;;21.55;51.57;100071.06;2092619;28;791;-56
2021/11/03 02:59:26;;;;;;;;;;;;;;;21.51;52.72;100070.31;2092326;28;942;-56
2021/11/03 03:00:26;;;;;;;;;;;;;;;21.44;52.60;100066.22;2092605;28;1029;-56
2021/11/03 03:01:30;;;;;;;;;;;;;;;21.50;52.31;100056.94;2092609;28;792;-57
2021/11/03 03:02:30;;;;;;;;;;;;;;;21.50;53.00;100068.56;2092498;28;881;-56
2021/11/03 03:03:30;;;;;;;;;;;;;;;21.55;52.05;100063.84;2092566;28;867;-56
2021/11/03 03:04:34;;;;;;;;;;;;;;;21.55;52.83;100063.84;2092523;28;1330;-56
2021/11/03 03:05:34;;;;;;;;;;;;;;;21.56;52.88;100064.72;2092579;28;796;-56
2021/11/03 03:06:34;;;;;;;;;;;;;;;21.48;52.51;100063.28;2092452;28;1257;-56
2021/11/03 03:07:35;;;;;;;;;;;;;;;21.50;53.39;100062.34;2092513;28;823;-57
2021/11/03 03:08:35;;;;;;;;;;;;;;;21.51;52.25;100064.06;2092531;28;799;-56
2021/11/03 03:09:35;;;;;;;;;;;;;;;21.42;53.87;100065.41;2092329;28;1318;-56
2021/11/03 03:10:36;;;;;;;;;;;;;;;21.47;53.46;100058.84;2092267;28;1906;-56
2021/11/03 03:11:37;;;;;;;;;;;;;;;21.49;53.07;100064.13;2092559;28;1033;-56
2021/11/03 03:12:37;;;;;;;;;;;;;;;21.42;52.96;100065.41;2092373;28;863;-56
2021/11/03 03:13:38;;;;;;;;;;;;;;;21.44;54.00;100064.38;2092490;28;982;-57
2021/11/03 03:14:39;;;;;;;;;;;;;;;21.42;53.36;100055.50;2092431;28;780;-56
2021/11/03 03:15:39;;;;;;;;;;;;;;;21.44;53.34;100059.00;2092420;28;1028;-56
2021/11/03 03:16:41;;;;;;;;;;;;;;;21.44;52.60;100063.53;2092449;28;779;-56
2021/11/03 03:17:41;;;;;;;;;;;;;;;21.43;53.13;100057.25;2092463;28;815;-56
2021/11/03 03:18:41;;;;;;;;;;;;;;;21.45;53.71;100060.72;2092361;28;981;-56
2021/11/03 03:19:42;;;;;;;;;;;;;;;21.41;52.39;100063.66;2092471;28;859;-56
2021/11/03 03:20:42;;;;;;;;;;;;;;;21.47;52.36;100066.06;2092342;28;830;-56
2021/11/03 03:21:42;;;;;;;;;;;;;;;21.48;52.76;100063.28;2092439;28;1183;-56
2021/11/03 03:22:42;;;;;;;;;;;;;;;21.53;52.81;100062.19;2092177;28;969;-56
2021/11/03 03:23:43;;;;;;;;;;;;;;;21.51;52.75;100066.78;2092414;28;822;-56
2021/11/03 03:24:43;;;;;;;;;;;;;;;21.43;52.93;100059.94;2092349;28;783;-56
2021/11/03 03:25:45;;;;;;;;;;;;;;;21.42;53.02;100065.41;2092205;28;758;-56
2021/11/03 03:26:46;;;;;;;;;;;;;;;21.46;53.06;100062.47;2092382;28;799;-56
2021/11/03 03:27:46;;;;;;;;;;;;;;;21.47;52.86;100058.84;2092349;28;1810;-56
2021/11/03 03:28:46;;;;;;;;;;;;;;;21.44;52.94;100053.59;2092184;28;808;-56
2021/11/03 03:29:46;;;;;;;;;;;;;;;21.43;53.13;100059.94;2092432;28;1155;-56
2021/11/03 03:30:47;;;;;;;;;;;;;;;21.44;52.95;100059.00;2092296;28;1969;-56
2021/11/03 03:31:47;;;;;;;;;;;;;;;21.43;53.69;100056.38;2092352;28;1033;-56
2021/11/03 03:32:47;;;;;;;;;;;;;;;21.48;53.48;100054.34;2092343;28;862;-56
2021/11/03 03:33:48;;;;;;;;;;;;;;;21.53;52.05;100054.09;2092351;28;965;-56
2021/11/03 03:34:49;;;;;;;;;;;;;;;21.58;52.72;100054.75;2092305;28;854;-57
2021/11/03 03:35:49;;;;;;;;;;;;;;;21.51;53.30;100056.84;2092266;28;772;-57
2021/11/03 03:36:50;;;;;;;;;;;;;;;21.51;53.10;100047.91;2092277;28;945;-57
2021/11/03 03:37:50;;;;;;;;;;;;;;;21.45;53.43;100049.09;2092294;28;1245;-56
2021/11/03 03:38:51;;;;;;;;;;;;;;;21.53;52.56;100051.41;2092065;28;791;-57
2021/11/03 03:39:51;;;;;;;;;;;;;;;21.52;52.22;100053.22;2092278;28;985;-56
2021/11/03 03:40:51;;;;;;;;;;;;;;;21.51;52.92;100043.38;2092181;28;1064;-56
2021/11/03 03:41:54;;;;;;;;;;;;;;;21.43;53.50;100042.91;2092245;28;1048;-56
2021/11/03 03:42:55;;;;;;;;;;;;;;;21.40;53.29;100043.91;2092235;28;1056;-56
2021/11/03 03:43:55;;;;;;;;;;;;;;;21.47;52.75;100048.06;2092274;28;784;-56
2021/11/03 03:44:55;;;;;;;;;;;;;;;21.39;53.15;100042.16;2092201;28;898;-57
2021/11/03 03:45:56;;;;;;;;;;;;;;;21.40;54.23;100041.22;2092288;28;800;-56
2021/11/03 03:46:56;;;;;;;;;;;;;;;21.43;54.18;100045.59;2092105;28;779;-56
2021/11/03 03:47:56;;;;;;;;;;;;;;;21.34;54.46;100046.91;2092296;28;877;-57
2021/11/03 03:48:57;;;;;;;;;;;;;;;21.41;51.96;100042.97;2091974;28;981;-56
2021/11/03 03:49:57;;;;;;;;;;;;;;;21.51;51.95;100050.59;2092128;28;858;-56
2021/11/03 03:50:57;;;;;;;;;;;;;;;21.52;52.75;100045.13;2092095;28;1886;-56
2021/11/03 03:51:57;;;;;;;;;;;;;;;21.54;52.76;99996.56;2092238;28;827;-57
2021/11/03 03:52:57;;;;;;;;;;;;;;;21.49;53.03;99996.78;2092148;28;981;-56
2021/11/03 03:53:57;;;;;;;;;;;;;;;21.44;52.23;100002.41;2092202;28;818;-57
2021/11/03 03:54:58;;;;;;;;;;;;;;;21.48;52.80;100000.44;2092122;28;898;-56
2021/11/03 03:55:58;;;;;;;;;;;;;;;21.39;54.12;100009.84;2092185;28;981;-56
2021/11/03 03:56:58;;;;;;;;;;;;;;;21.52;52.17;99980.44;2091949;28;1186;-56
2021/11/03 03:57:59;;;;;;;;;;;;;;;21.56;52.31;99990.13;2092125;28;1064;-56
2021/11/03 03:58:59;;;;;;;;;;;;;;;21.45;52.97;100067.97;2092165;28;783;-56
2021/11/03 03:59:59;;;;;;;;;;;;;;;21.46;52.83;100061.63;2091791;28;989;-56
2021/11/03 04:00:59;;;;;;;;;;;;;;;21.53;52.73;100057.66;2092152;28;788;-56
2021/11/03 04:02:00;;;;;;;;;;;;;;;21.53;52.75;100046.00;2092015;28;856;-56
2021/11/03 04:03:00;;;;;;;;;;;;;;;21.49;53.22;100050.66;2092103;28;1029;-56
2021/11/03 04:04:00;;;;;;;;;;;;;;;21.56;51.90;100049.41;2092129;28;855;-56
2021/11/03 04:05:01;;;;;;;;;;;;;;;22.28;50.96;100044.00;2092085;28;993;-56
2021/11/03 04:06:01;;;;;;;;;;;;;;;22.62;49.89;100050.31;2092095;28;770;-56
2021/11/03 04:07:01;;;;;;;;;;;;;;;22.82;49.25;100053.75;2092040;28;866;-56
2021/11/03 04:08:01;;;;;;;;;;;;;;;22.94;49.76;100052.19;2091931;28;934;-55
2021/11/03 04:09:02;;;;;;;;;;;;;;;23.03;48.61;100048.06;2092044;28;763;-55
2021/11/03 04:10:03;;;;;;;;;;;;;;;23.10;49.44;100049.47;2091964;28;1593;-56
2021/11/03 04:11:04;;;;;;;;;;;;;;;23.11;50.06;100037.72;2091892;28;1918;-56
2021/11/03 04:12:04;;;;;;;;;;;;;;;23.14;53.94;100025.88;2092072;28;1005;-55
2021/11/03 04:13:04;;;;;;;;;;;;;;;23.20;49.17;100012.03;2092002;28;1056;-55
2021/11/03 04:14:05;;;;;;;;;;;;;;;23.28;49.14;100017.88;2092025;28;1176;-55
2021/11/03 04:15:06;;;;;;;;;;;;;;;23.31;49.79;100017.69;2091970;28;981;-55
2021/11/03 04:16:06;;;;;;;;;;;;;;;23.37;54.49;100021.88;2092078;28;1240;-55
2021/11/03 04:17:06;;;;;;;;;;;;;;;23.36;49.73;100017.44;2091989;28;843;-56
2021/11/03 04:18:06;;;;;;;;;;;;;;;23.41;49.85;100025.25;2092042;28;825;-56
2021/11/03 04:19:06;;;;;;;;;;;;;;;23.48;54.49;100021.25;2091985;28;886;-57
2021/11/03 04:20:07;;;;;;;;;;;;;;;23.54;50.26;100020.88;2091960;28;887;-56
2021/11/03 04:21:08;;;;;;;;;;;;;;;23.51;48.01;100023.78;2091734;28;847;-56
2021/11/03 04:22:08;;;;;;;;;;;;;;;23.53;51.15;100027.25;2091506;28;796;-57
2021/11/03 04:23:08;;;;;;;;;;;;;;;23.55;49.79;100019.94;2091891;28;978;-56
2021/11/03 04:24:08;;;;;;;;;;;;;;;23.61;51.72;100010.56;2091905;28;986;-56
2021/11/03 04:25:08;;;;;;;;;;;;;;;23.64;51.51;100016.69;2091910;28;982;-56
2021/11/03 04:26:16;;;;;;;;;;;;;;;23.67;48.34;100021.91;2091890;28;871;-57
2021/11/03 04:27:17;;;;;;;;;;;;;;;23.69;53.06;100019.09;2092095;28;711;-58
2021/11/03 04:28:17;;;;;;;;;;;;;;;23.70;47.55;100018.13;2091774;28;1045;-57
2021/11/03 04:29:19;;;;;;;;;;;;;;;23.75;52.91;100021.44;2091964;28;788;-57
2021/11/03 04:30:20;;;;;;;;;;;;;;;23.71;50.43;100017.19;2091849;28;1945;-57
2021/11/03 04:31:20;;;;;;;;;;;;;;;23.73;47.81;100017.09;2091898;28;851;-57
2021/11/03 04:32:21;;;;;;;;;;;;;;;23.74;50.77;100016.13;2091854;28;826;-57
2021/11/03 04:33:21;;;;;;;;;;;;;;;23.75;48.29;100015.19;2091864;28;1155;-57
2021/11/03 04:34:21;;;;;;;;;;;;;;;23.76;48.27;100019.63;2091918;28;788;-59
2021/11/03 04:35:22;;;;;;;;;;;;;;;23.87;48.28;100016.25;2091894;28;1044;-58
2021/11/03 04:36:23;;;;;;;;;;;;;;;23.88;48.33;100018.00;2091853;28;787;-57
2021/11/03 04:37:23;;;;;;;;;;;;;;;23.88;55.94;100015.31;2091800;28;1127;-58
2021/11/03 04:38:23;;;;;;;;;;;;;;;23.88;51.86;100015.31;2091606;28;794;-57
2021/11/03 04:39:23;;;;;;;;;;;;;;;23.80;50.57;100019.34;2091740;28;871;-57
2021/11/03 04:40:24;;;;;;;;;;;;;;;23.87;49.47;100019.81;2091884;28;827;-58
2021/11/03 04:41:25;;;;;;;;;;;;;;;23.90;51.08;100018.78;2091778;28;795;-57
2021/11/03 04:42:25;;;;;;;;;;;;;;;23.89;47.77;100019.75;2091763;28;791;-57
2021/11/03 04:43:25;;;;;;;;;;;;;;;23.92;50.23;100025.81;2091788;28;1044;-57
2021/11/03 04:44:25;;;;;;;;;;;;;;;23.96;50.80;100015.72;2091802;28;705;-57
2021/11/03 04:45:25;;;;;;;;;;;;;;;24.00;47.50;100025.41;2091802;28;933;-57
2021/11/03 04:46:26;;;;;;;;;;;;;;;24.01;48.94;100016.34;2091667;28;803;-57
2021/11/03 04:47:26;;;;;;;;;;;;;;;24.06;54.16;100019.63;2091789;28;789;-57
2021/11/03 04:48:26;;;;;;;;;;;;;;;24.03;53.20;100022.53;2091729;28;796;-57
2021/11/03 04:49:27;;;;;;;;;;;;;;;24.01;48.54;100013.63;2091735;28;883;-58
2021/11/03 04:50:29;;;;;;;;;;;;;;;24.05;46.32;100015.19;2091559;28;1894;-57
2021/11/03 04:51:29;;;;;;;;;;;;;;;24.09;48.07;100021.28;2091699;28;854;-57
2021/11/03 04:52:30;;;;;;;;;;;;;;;24.05;49.18;100025.13;2091663;28;847;-57
2021/11/03 04:53:30;;;;;;;;;;;;;;;24.08;47.17;100025.81;2091581;28;990;-58
2021/11/03 04:54:31;;;;;;;;;;;;;;;24.03;45.56;100024.34;2091342;28;868;-57
2021/11/03 04:55:32;;;;;;;;;;;;;;;24.10;49.61;100020.31;2091746;28;1044;-58
2021/11/03 04:56:32;;;;;;;;;;;;;;;24.13;46.24;100021.00;2091533;28;1269;-57
2021/11/03 04:57:32;;;;;;;;;;;;;;;24.15;47.69;100028.13;2091767;28;1230;-58
2021/11/03 04:58:32;;;;;;;;;;;;;;;24.11;49.13;100027.47;2091577;28;1036;-57
2021/11/03 04:59:32;;;;;;;;;;;;;;;24.11;51.41;100030.16;2091285;28;1040;-57
2021/11/03 05:00:33;;;;;;;;;;;;;;;24.09;48.34;100030.28;2091609;28;1029;-57
2021/11/03 05:01:33;;;;;;;;;;;;;;;24.10;48.54;100018.50;2091678;28;797;-57
2021/11/03 05:02:33;;;;;;;;;;;;;;;24.12;50.40;100019.25;2091598;28;1194;-57
2021/11/03 05:03:33;;;;;;;;;;;;;;;24.13;45.54;100023.72;2091686;28;815;-56
2021/11/03 05:04:34;;;;;;;;;;;;;;;24.13;46.66;100020.13;2091401;28;965;-57
2021/11/03 05:05:35;;;;;;;;;;;;;;;24.17;53.65;100023.50;2091686;28;1040;-57
2021/11/03 05:06:36;;;;;;;;;;;;;;;24.20;50.66;100016.06;2091539;28;1068;-57
2021/11/03 05:07:37;;;;;;;;;;;;;;;24.23;46.51;100024.00;2091436;28;818;-56
2021/11/03 05:08:37;;;;;;;;;;;;;;;24.25;50.08;100016.66;2091461;28;917;-57
2021/11/03 05:09:37;;;;;;;;;;;;;;;24.31;48.79;100018.09;2091666;28;1037;-57
2021/11/03 05:10:38;;;;;;;;;;;;;;;24.30;53.10;100018.22;2091421;28;1914;-57
2021/11/03 05:11:38;;;;;;;;;;;;;;;24.33;48.47;100018.88;2091599;28;860;-57
2021/11/03 05:12:38;;;;;;;;;;;;;;;24.45;49.63;100022.66;2091604;28;1025;-58
2021/11/03 05:13:38;;;;;;;;;;;;;;;24.41;45.76;100018.41;2091239;28;937;-57
2021/11/03 05:14:38;;;;;;;;;;;;;;;24.42;46.25;100023.72;2091585;28;1345;-57
2021/11/03 05:15:38;;;;;;;;;;;;;;;24.41;51.24;100027.41;2091581;28;811;-57
2021/11/03 05:16:39;;;;;;;;;;;;;;;24.50;50.50;100033.19;2091511;28;978;-57
2021/11/03 05:17:39;;;;;;;;;;;;;;;24.48;45.98;100022.47;2091594;28;764;-57
2021/11/03 05:18:39;;;;;;;;;;;;;;;24.54;50.78;100029.34;2091437;28;1415;-57
2021/11/03 05:19:39;;;;;;;;;;;;;;;24.56;46.99;100032.81;2091525;28;1064;-57
2021/11/03 05:20:40;;;;;;;;;;;;;;;24.55;47.76;100031.06;2091567;28;948;-57